createdAt,value
2022-09-03T00:01:40.810Z,99958
2022-09-03T00:07:32.253Z,99962
2022-09-03T00:13:28.678Z,99963
2022-09-03T00:19:19.482Z,99950
2022-09-03T00:25:12.040Z,99953
2022-09-03T00:31:03.486Z,99960
2022-09-03T00:36:55.396Z,99946
2022-09-03T00:42:46.527Z,99947
2022-09-03T00:48:42.875Z,99939
2022-09-03T00:54:33.886Z,99941
2022-09-03T01:00:24.810Z,99944
2022-09-03T01:06:15.342Z,99955
2022-09-03T01:12:07.867Z,99943
2022-09-03T01:17:58.731Z,99951
2022-09-03T01:23:51.135Z,99949
2022-09-03T01:29:43.076Z,99949
2022-09-03T01:35:35.408Z,99947
2022-09-03T01:41:27.204Z,99955
2022-09-03T01:47:17.727Z,99949
2022-09-03T01:53:08.786Z,99949
2022-09-03T01:58:59.932Z,99948
2022-09-03T02:04:51.378Z,99936
2022-09-03T02:10:43.472Z,99938
2022-09-03T02:16:35.400Z,99930
2022-09-03T02:22:26.266Z,99932
2022-09-03T02:28:20.911Z,99932
2022-09-03T02:34:11.196Z,99920
2022-09-03T02:40:04.679Z,99920
2022-09-03T02:45:55.348Z,99925
2022-09-03T02:51:46.497Z,99922
2022-09-03T02:57:37.025Z,99917
2022-09-03T03:03:28.251Z,99914
2022-09-03T03:09:19.077Z,99911
2022-09-03T03:15:10.089Z,99914
2022-09-03T03:21:01.309Z,99911
2022-09-03T03:26:51.937Z,99905
2022-09-03T03:32:42.789Z,99909
2022-09-03T03:38:33.198Z,99900
2022-09-03T03:44:24.282Z,99911
2022-09-03T03:50:15.350Z,99910
2022-09-03T03:56:05.804Z,99914
2022-09-03T04:01:56.984Z,99916
2022-09-03T04:07:48.969Z,99915
2022-09-03T04:13:39.505Z,99915
2022-09-03T04:19:30.322Z,99916
2022-09-03T04:25:21.124Z,99915
2022-09-03T04:31:13.201Z,99908
2022-09-03T04:37:04.859Z,99907
2022-09-03T04:42:57.426Z,99912
2022-09-03T04:48:47.758Z,99909
2022-09-03T04:54:38.310Z,99907
2022-09-03T05:00:30.094Z,99905
2022-09-03T05:06:21.283Z,99919
2022-09-03T05:12:12.187Z,99919
2022-09-03T05:18:05.597Z,99915
2022-09-03T05:23:57.465Z,99916
2022-09-03T05:29:48.772Z,99918
2022-09-03T05:35:39.931Z,99914
2022-09-03T05:41:31.132Z,99908
2022-09-03T05:47:22.705Z,99913
2022-09-03T05:53:13.750Z,99914
2022-09-03T05:59:05.509Z,99920
2022-09-03T06:04:56.579Z,99923
2022-09-03T06:10:48.095Z,99928
2022-09-03T06:16:40.820Z,99930
2022-09-03T06:22:32.352Z,99937
2022-09-03T06:28:28.402Z,99931
2022-09-03T06:34:18.928Z,99943
2022-09-03T06:40:10.151Z,99946
2022-09-03T06:46:01.518Z,99950
2022-09-03T06:51:54.398Z,99954
2022-09-03T06:57:45.943Z,99952
2022-09-03T07:03:42.741Z,99957
2022-09-03T07:09:33.028Z,99956
2022-09-03T07:15:23.264Z,99964
2022-09-03T07:21:14.781Z,99966
2022-09-03T07:27:05.642Z,99974
2022-09-03T07:33:03.137Z,99974
2022-09-03T07:38:53.977Z,99974
2022-09-03T07:44:44.908Z,99971
2022-09-03T07:50:37.085Z,99980
2022-09-03T07:56:30.149Z,99981
2022-09-03T08:02:21.919Z,99983
2022-09-03T08:08:19.198Z,99988
2022-09-03T08:14:16.411Z,99995
2022-09-03T08:20:08.850Z,99994
2022-09-03T08:26:06.504Z,99992
2022-09-03T08:45:21.019Z,99997
2022-09-03T08:51:37.506Z,100001
2022-09-03T08:57:37.415Z,99997
2022-09-03T09:03:43.839Z,100005
2022-09-03T09:09:53.897Z,100008
2022-09-03T09:15:53.820Z,100002
2022-09-03T09:22:03.734Z,100001
2022-09-03T09:28:25.908Z,99986
2022-09-03T09:34:33.567Z,99991
2022-09-03T09:40:24.307Z,99999
2022-09-03T09:46:16.090Z,99998
2022-09-03T09:52:08.839Z,99990
2022-09-03T10:11:26.308Z,99990
2022-09-03T10:17:37.229Z,99992
2022-09-03T10:23:34.039Z,100006
2022-09-03T10:29:34.372Z,100012
2022-09-03T10:35:30.507Z,100009
2022-09-03T10:41:22.954Z,100006
2022-09-03T10:47:19.831Z,99990
2022-09-03T10:53:34.205Z,99995
2022-09-03T11:00:09.431Z,100000
2022-09-03T11:06:15.153Z,100003
2022-09-03T11:12:27.422Z,99999
2022-09-03T11:18:34.372Z,99983
2022-09-03T11:24:27.911Z,99976
2022-09-03T11:30:22.290Z,99967
2022-09-03T11:36:21.618Z,99958
2022-09-03T11:42:31.386Z,99952
2022-09-03T11:48:41.613Z,99943
2022-09-03T11:54:46.547Z,99950
2022-09-03T12:00:38.970Z,99927
2022-09-03T12:06:33.314Z,99925
2022-09-03T12:18:46.798Z,99932
2022-09-03T12:24:42.568Z,99924
2022-09-03T12:30:35.465Z,99925
2022-09-03T12:36:26.408Z,99920
2022-09-03T12:42:17.630Z,99937
2022-09-03T12:48:15.591Z,99932
2022-09-03T12:54:06.519Z,99931
2022-09-03T13:00:00.778Z,99919
2022-09-03T13:12:21.072Z,99917
2022-09-03T13:18:13.430Z,99909
2022-09-03T13:24:05.038Z,99915
2022-09-03T13:36:41.715Z,99907
2022-09-03T13:42:33.800Z,99904
2022-09-03T13:48:29.529Z,99896
2022-09-03T13:54:51.203Z,99903
2022-09-03T14:00:40.879Z,99900
2022-09-03T14:06:32.675Z,99902
2022-09-03T14:12:25.704Z,99902
2022-09-03T14:18:16.970Z,99892
2022-09-03T14:30:48.065Z,99895
2022-09-03T14:36:50.669Z,99897
2022-09-03T14:56:03.186Z,99898
2022-09-03T15:02:25.415Z,99893
2022-09-03T15:08:42.043Z,99895
2022-09-03T15:28:13.401Z,99951
2022-09-03T15:34:05.803Z,99963
2022-09-03T15:40:00.809Z,99963
2022-09-03T15:47:02.159Z,99968
2022-09-03T15:53:24.915Z,99988
2022-09-03T15:59:42.957Z,100005
2022-09-03T16:05:48.791Z,100019
2022-09-03T16:19:00.095Z,100029
2022-09-03T16:24:56.991Z,100028
2022-09-03T16:30:52.072Z,100022
2022-09-03T16:36:55.780Z,100023
2022-09-03T16:42:47.812Z,100035
2022-09-03T16:48:40.144Z,100029
2022-09-03T16:54:31.227Z,100042
2022-09-03T17:00:23.689Z,100044
2022-09-03T17:06:32.491Z,100047
2022-09-03T17:12:25.327Z,100042
2022-09-03T17:18:19.374Z,100041
2022-09-03T17:24:11.199Z,100032
2022-09-03T17:30:03.108Z,100028
2022-09-03T17:35:53.974Z,100034
2022-09-03T17:41:43.850Z,100033
2022-09-03T17:47:33.893Z,100033
2022-09-03T17:53:25.942Z,100043
2022-09-03T17:59:18.218Z,100037
2022-09-03T18:05:10.463Z,100038
2022-09-03T18:11:03.245Z,100039
2022-09-03T18:16:53.352Z,100041
2022-09-03T18:22:44.688Z,100043
2022-09-03T18:28:36.762Z,100046
2022-09-03T18:34:29.521Z,100056
2022-09-03T18:40:40.838Z,100059
2022-09-03T18:48:16.610Z,100059
2022-09-03T18:54:14.548Z,100075
2022-09-03T19:00:04.117Z,100091
2022-09-03T19:05:54.269Z,100092
2022-09-03T19:11:53.562Z,100108
2022-09-03T19:17:49.083Z,100110
2022-09-03T19:23:40.805Z,100126
2022-09-03T19:29:37.878Z,100125
2022-09-03T19:35:40.093Z,100133
2022-09-03T19:41:43.225Z,100141
2022-09-03T19:47:33.218Z,100156
2022-09-03T19:53:23.304Z,100156
2022-09-03T19:59:14.810Z,100160
2022-09-03T20:05:11.773Z,100161
2022-09-03T20:11:04.954Z,100164
2022-09-03T20:17:02.132Z,100171
2022-09-03T20:23:21.424Z,100174
2022-09-03T20:41:41.404Z,100172
2022-09-03T20:47:47.327Z,100178
2022-09-03T20:54:06.619Z,100166
2022-09-03T21:00:12.456Z,100173
2022-09-03T21:06:04.475Z,100176
2022-09-03T21:12:00.206Z,100183
2022-09-03T21:17:49.744Z,100182
2022-09-03T21:23:44.810Z,100189
2022-09-03T21:43:25.591Z,100196
2022-09-03T21:49:43.771Z,100207
2022-09-03T21:55:44.268Z,100202
2022-09-03T22:01:36.843Z,100207
2022-09-03T22:07:29.133Z,100218
2022-09-03T22:13:22.294Z,100209
2022-09-03T22:19:14.405Z,100217
2022-09-03T22:25:18.140Z,100216
2022-09-03T22:31:41.534Z,100210
2022-09-03T22:37:34.408Z,100214
2022-09-03T22:43:23.954Z,100203
2022-09-03T22:49:28.678Z,100214
2022-09-03T22:55:37.756Z,100220
2022-09-03T23:01:29.037Z,100220
